createdAt,value
2022-12-23T00:00:44.308Z,100094.31
2022-12-23T00:03:10.807Z,100099.31
2022-12-23T00:05:38.111Z,100097.78
2022-12-23T00:08:04.732Z,100100.34
2022-12-23T00:10:31.085Z,100102.94
2022-12-23T00:12:57.472Z,100102.91
2022-12-23T00:15:23.846Z,100096.56
2022-12-23T00:17:50.228Z,100097.31
2022-12-23T00:20:16.593Z,100093.06
2022-12-23T00:22:43.069Z,100109.28
2022-12-23T00:25:09.446Z,100103.38
2022-12-23T00:27:37.723Z,100111.53
2022-12-23T00:30:04.298Z,100115.34
2022-12-23T00:32:30.681Z,100109.72
2022-12-23T00:34:57.040Z,100104.44
2022-12-23T00:37:23.427Z,100101.09
2022-12-23T00:39:54.798Z,100094.75
2022-12-23T00:42:21.601Z,100087.81
2022-12-23T00:44:47.948Z,100094.31
2022-12-23T00:47:14.304Z,100095.34
2022-12-23T00:49:40.696Z,100106.72
2022-12-23T00:52:07.298Z,100107.47
2022-12-23T00:54:33.694Z,100109.91
2022-12-23T00:57:00.179Z,100123.22
2022-12-23T00:59:26.563Z,100125.34
2022-12-23T01:01:53.037Z,100120.66
2022-12-23T01:04:19.522Z,100136.84
2022-12-23T01:06:45.878Z,100136.38
2022-12-23T01:09:12.235Z,100134.41
2022-12-23T01:11:38.693Z,100135.75
2022-12-23T01:14:05.059Z,100136.81
2022-12-23T01:16:31.512Z,100136.06
2022-12-23T01:18:57.998Z,100128.94
2022-12-23T01:21:24.366Z,100129.84
2022-12-23T01:23:50.750Z,100133.63
2022-12-23T01:26:17.112Z,100135.91
2022-12-23T01:28:43.514Z,100145.28
2022-12-23T01:31:09.901Z,100143.34
2022-12-23T01:33:36.242Z,100138.78
2022-12-23T01:36:02.624Z,100133.94
2022-12-23T01:38:29.017Z,100139.84
2022-12-23T01:40:55.472Z,100137.56
2022-12-23T01:43:21.841Z,100141.34
2022-12-23T01:45:48.270Z,100139.84
2022-12-23T01:48:14.652Z,100147.44
2022-12-23T01:50:41.002Z,100144.38
2022-12-23T01:53:08.503Z,100148.31
2022-12-23T01:55:35.229Z,100146.94
2022-12-23T01:58:01.581Z,100143.63
2022-12-23T02:00:27.971Z,100150.44
2022-12-23T02:02:54.542Z,100141.06
2022-12-23T02:05:21.023Z,100142.13
2022-12-23T02:07:47.396Z,100149.53
2022-12-23T02:10:13.776Z,100146.34
2022-12-23T02:12:40.174Z,100143.31
2022-12-23T02:15:06.539Z,100144.41
2022-12-23T02:17:32.905Z,100140.28
2022-12-23T02:19:59.300Z,100139.53
2022-12-23T02:22:25.666Z,100126.53
2022-12-23T02:24:52.027Z,100131.38
2022-12-23T02:27:18.492Z,100128.78
2022-12-23T02:29:44.854Z,100127.44
2022-12-23T02:32:11.247Z,100127.28
2022-12-23T02:34:37.674Z,100131.81
2022-12-23T02:37:04.058Z,100124.56
2022-12-23T02:39:30.441Z,100125.34
2022-12-23T02:41:56.833Z,100134.09
2022-12-23T02:44:23.210Z,100125.34
2022-12-23T02:46:49.616Z,100125.03
2022-12-23T02:49:15.988Z,100127.88
2022-12-23T02:51:42.356Z,100127.72
2022-12-23T02:54:08.730Z,100127.44
2022-12-23T02:56:35.125Z,100125.63
2022-12-23T02:59:01.472Z,100132.00
2022-12-23T03:01:27.919Z,100135.28
2022-12-23T03:03:54.416Z,100134.09
2022-12-23T03:06:20.876Z,100136.22
2022-12-23T03:08:47.256Z,100134.41
2022-12-23T03:11:13.631Z,100134.09
2022-12-23T03:13:40.008Z,100132.13
2022-12-23T03:16:06.516Z,100128.78
2022-12-23T03:18:32.957Z,100115.94
2022-12-23T03:20:59.337Z,100112.59
2022-12-23T03:23:25.701Z,100112.31
2022-12-23T03:25:52.072Z,100115.50
2022-12-23T03:28:18.428Z,100117.28
2022-12-23T03:30:44.834Z,100123.81
2022-12-23T03:33:11.268Z,100115.47
2022-12-23T03:35:37.667Z,100116.56
2022-12-23T03:38:04.030Z,100115.47
2022-12-23T03:40:30.385Z,100117.47
2022-12-23T03:42:56.794Z,100127.28
2022-12-23T03:45:40.650Z,100126.22
2022-12-23T03:48:07.609Z,100110.50
2022-12-23T03:50:33.981Z,100114.13
2022-12-23T03:53:00.378Z,100122.91
2022-12-23T03:55:26.743Z,100121.69
2022-12-23T03:57:53.091Z,100125.47
2022-12-23T04:00:19.478Z,100133.19
2022-12-23T04:02:46.011Z,100132.59
2022-12-23T04:05:12.476Z,100126.38
2022-12-23T04:07:38.812Z,100110.50
2022-12-23T04:10:05.167Z,100089.63
2022-12-23T04:12:31.537Z,100096.28
2022-12-23T04:14:57.904Z,100106.25
2022-12-23T04:17:24.258Z,100097.03
2022-12-23T04:19:50.623Z,100094.31
2022-12-23T04:22:17.001Z,100097.03
2022-12-23T04:24:43.436Z,100099.31
2022-12-23T04:27:09.841Z,100105.66
2022-12-23T04:29:36.192Z,100109.75
2022-12-23T04:32:02.551Z,100114.13
2022-12-23T04:34:29.024Z,100102.94
2022-12-23T04:36:55.375Z,100103.84
2022-12-23T04:39:21.732Z,100098.25
2022-12-23T04:41:48.210Z,100091.88
2022-12-23T04:44:14.562Z,100095.34
2022-12-23T04:46:40.990Z,100083.72
2022-12-23T04:49:07.463Z,100079.16
2022-12-23T04:51:33.849Z,100085.25
2022-12-23T04:54:00.207Z,100085.53
2022-12-23T04:56:26.612Z,100072.66
2022-12-23T04:58:52.971Z,100071.59
2022-12-23T05:01:19.422Z,100077.69
2022-12-23T05:03:45.843Z,100076.03
2022-12-23T05:06:12.235Z,100066.00
2022-12-23T05:08:38.586Z,100072.69
2022-12-23T05:11:05.005Z,100070.41
2022-12-23T05:13:31.375Z,100076.28
2022-12-23T05:15:57.816Z,100076.91
2022-12-23T05:18:24.253Z,100088.56
2022-12-23T05:20:50.599Z,100074.03
2022-12-23T05:23:16.979Z,100066.19
2022-12-23T05:25:43.393Z,100065.13
2022-12-23T05:28:09.788Z,100067.41
2022-12-23T05:30:36.148Z,100067.53
2022-12-23T05:33:02.567Z,100062.38
2022-12-23T05:35:28.955Z,100066.78
2022-12-23T05:37:55.329Z,100076.91
2022-12-23T05:40:23.850Z,100074.50
2022-12-23T05:42:51.503Z,100063.28
2022-12-23T05:45:17.888Z,100054.06
2022-12-23T05:47:44.360Z,100051.22
2022-12-23T05:50:10.784Z,100043.91
2022-12-23T05:52:37.124Z,100046.63
2022-12-23T05:55:03.522Z,100044.81
2022-12-23T05:57:29.868Z,100036.97
2022-12-23T05:59:56.332Z,100042.13
2022-12-23T06:02:22.788Z,100038.78
2022-12-23T06:04:49.261Z,100041.34
2022-12-23T06:07:15.634Z,100046.03
2022-12-23T06:09:42.019Z,100033.31
2022-12-23T06:12:08.379Z,100044.06
2022-12-23T06:14:34.754Z,100040.28
2022-12-23T06:17:01.182Z,100032.56
2022-12-23T06:19:27.563Z,100033.66
2022-12-23T06:21:53.948Z,100035.44
2022-12-23T06:24:20.285Z,100040.28
2022-12-23T06:26:47.522Z,100042.69
2022-12-23T06:29:16.089Z,100052.41
2022-12-23T06:31:42.586Z,100055.28
2022-12-23T06:34:09.182Z,100040.31
2022-12-23T06:36:35.570Z,100033.50
2022-12-23T06:39:01.942Z,100021.69
2022-12-23T06:41:28.288Z,100018.78
2022-12-23T06:43:54.843Z,100017.16
2022-12-23T06:46:21.240Z,100015.03
2022-12-23T06:48:47.670Z,100014.44
2022-12-23T06:51:14.043Z,100014.75
2022-12-23T06:53:40.399Z,100005.66
2022-12-23T06:56:06.779Z,100012.31
2022-12-23T06:58:33.144Z,100002.28
2022-12-23T07:00:59.587Z,99994.28
2022-12-23T07:03:26.128Z,99993.09
2022-12-23T07:05:52.630Z,99984.91
2022-12-23T07:08:18.992Z,99981.59
2022-12-23T07:10:45.455Z,99986.19
2022-12-23T07:13:11.853Z,99986.47
2022-12-23T07:15:38.239Z,99987.06
2022-12-23T07:18:04.606Z,99987.03
2022-12-23T07:20:30.980Z,99976.13
2022-12-23T07:22:57.356Z,99978.84
2022-12-23T07:25:23.738Z,99982.03
2022-12-23T07:27:50.089Z,99970.84
2022-12-23T07:30:16.477Z,99966.47
2022-12-23T07:32:42.888Z,99974.34
2022-12-23T07:35:09.274Z,99972.09
2022-12-23T07:37:35.773Z,99970.09
2022-12-23T07:40:08.082Z,99972.53
2022-12-23T07:42:50.397Z,99971.75
2022-12-23T07:45:16.834Z,99975.81
2022-12-23T07:47:43.247Z,99977.66
2022-12-23T07:50:09.605Z,99972.66
2022-12-23T07:52:36.089Z,99971.00
2022-12-23T07:55:02.447Z,99970.72
2022-12-23T07:57:28.826Z,99978.56
2022-12-23T07:59:55.192Z,99966.03
2022-12-23T08:02:21.654Z,99968.72
2022-12-23T08:04:48.159Z,99975.38
2022-12-23T08:07:14.600Z,99964.81
2022-12-23T08:09:40.987Z,99967.66
2022-12-23T08:12:07.381Z,99967.97
2022-12-23T08:14:33.740Z,99976.28
2022-12-23T08:17:00.180Z,99977.19
2022-12-23T08:19:26.638Z,99959.91
2022-12-23T08:21:52.998Z,99960.53
2022-12-23T08:24:19.368Z,99945.25
2022-12-23T08:26:45.742Z,99952.94
2022-12-23T08:29:12.115Z,99951.47
2022-12-23T08:31:38.489Z,99950.97
2022-12-23T08:34:04.847Z,99952.19
2022-12-23T08:36:31.253Z,99945.84
2022-12-23T08:38:57.636Z,99947.97
2022-12-23T08:41:24.003Z,99940.25
2022-12-23T08:43:50.405Z,99932.72
2022-12-23T08:46:16.844Z,99927.44
2022-12-23T08:48:48.839Z,99927.28
2022-12-23T08:51:15.896Z,99923.47
2022-12-23T08:53:42.247Z,99916.66
2022-12-23T08:56:08.662Z,99910.44
2022-12-23T08:58:35.023Z,99902.59
2022-12-23T09:01:01.401Z,99898.19
2022-12-23T09:03:27.928Z,99893.03
2022-12-23T09:05:54.335Z,99886.66
2022-12-23T09:08:20.740Z,99850.03
2022-12-23T09:10:47.124Z,99808.91
2022-12-23T09:13:19.895Z,99820.06
2022-12-23T09:15:51.535Z,99821.69
2022-12-23T09:18:17.977Z,99819.97
2022-12-23T09:20:44.372Z,99847.03
2022-12-23T09:23:10.744Z,99853.97
2022-12-23T09:25:37.130Z,99859.28
2022-12-23T09:28:03.502Z,99868.97
2022-12-23T09:30:29.873Z,99870.31
2022-12-23T09:32:56.236Z,99872.63
2022-12-23T09:35:22.628Z,99883.66
2022-12-23T09:37:49.012Z,99878.44
2022-12-23T09:40:15.401Z,99896.06
2022-12-23T09:42:41.811Z,99911.81
2022-12-23T09:45:08.180Z,99886.53
2022-12-23T09:47:34.577Z,99894.38
2022-12-23T09:50:01.067Z,99897.53
2022-12-23T09:52:27.425Z,99900.09
2022-12-23T09:54:53.826Z,99895.59
2022-12-23T09:57:20.192Z,99895.00
2022-12-23T09:59:46.568Z,99886.97
2022-12-23T10:02:13.057Z,99894.38
2022-12-23T10:04:39.488Z,99895.41
2022-12-23T10:07:05.858Z,99905.22
2022-12-23T10:09:32.229Z,99877.41
2022-12-23T10:11:58.571Z,99879.66
2022-12-23T10:14:25.063Z,99880.22
2022-12-23T10:16:51.446Z,99873.75
2022-12-23T10:19:17.795Z,99865.28
2022-12-23T10:21:47.570Z,99861.63
2022-12-23T10:24:14.429Z,99869.41
2022-12-23T10:26:40.801Z,99876.19
2022-12-23T10:29:07.223Z,99874.84
2022-12-23T10:31:41.483Z,99877.00
2022-12-23T10:34:08.014Z,99873.03
2022-12-23T10:36:34.431Z,99875.13
2022-12-23T10:39:00.861Z,99876.00
2022-12-23T10:41:27.247Z,99865.28
2022-12-23T10:43:53.668Z,99886.31
2022-12-23T10:46:20.082Z,99888.28
2022-12-23T10:48:46.479Z,99876.94
2022-12-23T10:51:12.919Z,99869.97
2022-12-23T10:53:39.300Z,99865.28
2022-12-23T10:56:05.713Z,99864.22
2022-12-23T10:58:32.099Z,99852.09
2022-12-23T11:00:58.526Z,99852.72
2022-12-23T11:03:24.989Z,99846.03
2022-12-23T11:05:51.506Z,99854.97
2022-12-23T11:08:17.895Z,99862.88
2022-12-23T11:10:44.276Z,99860.59
2022-12-23T11:13:10.785Z,99864.34
2022-12-23T11:15:37.209Z,99877.97
2022-12-23T11:18:03.658Z,99879.81
2022-12-23T11:20:30.085Z,99899.03
2022-12-23T11:22:56.485Z,99890.56
2022-12-23T11:25:22.899Z,99892.81
2022-12-23T11:27:49.321Z,99894.81
2022-12-23T11:30:15.702Z,99899.03
2022-12-23T11:32:42.093Z,99887.66
2022-12-23T11:35:08.552Z,99868.69
2022-12-23T11:37:35.045Z,99877.63
2022-12-23T11:40:01.443Z,99889.47
2022-12-23T11:42:27.873Z,99883.13
2022-12-23T11:44:54.279Z,99879.84
2022-12-23T11:47:20.656Z,99886.75
2022-12-23T11:49:47.055Z,99876.63
2022-12-23T11:52:14.451Z,99875.88
2022-12-23T11:54:40.803Z,99873.66
2022-12-23T11:57:07.851Z,99879.28
2022-12-23T11:59:34.272Z,99875.06
2022-12-23T12:02:00.735Z,99870.59
2022-12-23T12:04:27.220Z,99871.41
2022-12-23T12:06:56.615Z,99863.13
2022-12-23T12:09:23.259Z,99861.63
2022-12-23T12:11:49.665Z,99856.28
2022-12-23T12:14:16.083Z,99848.69
2022-12-23T12:16:42.523Z,99848.25
2022-12-23T12:19:09.028Z,99869.38
2022-12-23T12:21:35.413Z,99854.56
2022-12-23T12:24:18.266Z,99851.13
2022-12-23T12:26:45.597Z,99849.34
2022-12-23T12:29:12.010Z,99846.38
2022-12-23T12:31:38.416Z,99845.69
2022-12-23T12:34:04.828Z,99846.13
2022-12-23T12:36:31.268Z,99859.75
2022-12-23T12:38:57.702Z,99861.69
2022-12-23T12:41:24.214Z,99865.16
2022-12-23T12:43:50.586Z,99868.81
2022-12-23T12:46:17.100Z,99865.44
2022-12-23T12:48:43.647Z,99873.91
2022-12-23T12:51:10.010Z,99875.00
2022-12-23T12:53:36.400Z,99882.56
2022-12-23T12:56:02.765Z,99894.91
2022-12-23T12:58:29.151Z,99891.50
2022-12-23T13:00:55.564Z,99884.56
2022-12-23T13:03:21.952Z,99887.25
2022-12-23T13:05:53.587Z,99886.09
2022-12-23T13:08:20.716Z,99890.91
2022-12-23T13:10:47.124Z,99898.19
2022-12-23T13:13:14.545Z,99888.94
2022-12-23T13:15:40.957Z,99900.88
2022-12-23T13:18:07.680Z,99903.94
2022-12-23T13:20:34.054Z,99904.28
2022-12-23T13:23:20.757Z,99895.47
2022-12-23T13:25:46.855Z,99903.69
2022-12-23T13:28:13.256Z,99901.84
2022-12-23T13:30:39.660Z,99908.53
2022-12-23T13:33:06.090Z,99909.09
2022-12-23T13:35:32.461Z,99914.91
2022-12-23T13:37:58.827Z,99919.72
2022-12-23T13:40:25.299Z,99914.25
2022-12-23T13:42:51.679Z,99925.16
2022-12-23T13:45:18.029Z,99919.13
2022-12-23T13:47:44.385Z,99909.63
2022-12-23T13:50:10.737Z,99935.13
2022-12-23T13:52:37.152Z,99930.50
2022-12-23T13:55:03.538Z,99935.72
2022-12-23T13:57:29.911Z,99937.59
2022-12-23T13:59:59.749Z,99934.53
2022-12-23T14:02:31.219Z,99932.59
2022-12-23T14:04:57.622Z,99928.94
2022-12-23T14:07:24.021Z,99938.78
2022-12-23T14:09:50.416Z,99943.78
2022-12-23T14:12:16.812Z,99935.72
2022-12-23T14:14:43.162Z,99938.88
2022-12-23T14:17:09.549Z,99927.66
2022-12-23T14:19:35.920Z,99936.59
2022-12-23T14:22:02.296Z,99931.03
2022-12-23T14:24:28.647Z,99938.28
2022-12-23T14:26:56.131Z,99947.34
2022-12-23T14:29:22.497Z,99938.53
2022-12-23T14:31:48.888Z,99948.78
2022-12-23T14:34:15.369Z,99952.41
2022-12-23T14:36:41.798Z,99949.03
2022-12-23T14:39:08.182Z,99960.09
2022-12-23T14:41:34.578Z,99945.09
2022-12-23T14:44:00.951Z,99957.03
2022-12-23T14:46:27.351Z,99956.94
2022-12-23T14:49:15.947Z,99960.16
2022-12-23T14:51:40.162Z,99966.91
2022-12-23T14:54:06.576Z,99978.16
2022-12-23T14:56:32.946Z,99988.31
2022-12-23T14:58:59.352Z,99971.94
2022-12-23T15:01:25.722Z,99973.31
2022-12-23T15:03:57.590Z,99993.75
2022-12-23T15:06:27.278Z,100006.63
2022-12-23T15:08:53.690Z,100019.06
2022-12-23T15:11:20.086Z,100016.03
2022-12-23T15:13:46.452Z,100023.16
2022-12-23T15:16:12.926Z,100035.28
2022-12-23T15:18:39.389Z,100043.47
2022-12-23T15:21:05.779Z,100046.66
2022-12-23T15:23:32.292Z,100046.53
2022-12-23T15:25:58.681Z,100054.72
2022-12-23T15:28:25.090Z,100055.00
2022-12-23T15:30:51.502Z,100048.44
2022-12-23T15:33:52.040Z,100056.19
2022-12-23T15:36:05.483Z,100067.09
2022-12-23T15:38:31.821Z,100070.44
2022-12-23T15:40:58.207Z,100077.41
2022-12-23T15:43:24.599Z,100070.34
2022-12-23T15:45:50.987Z,100066.75
2022-12-23T15:48:17.353Z,100067.03
2022-12-23T15:50:43.770Z,100083.94
2022-12-23T15:53:10.191Z,100077.56
2022-12-23T15:55:36.592Z,100072.09
2022-12-23T15:58:03.373Z,100077.16
2022-12-23T16:00:29.727Z,100085.00
2022-12-23T16:03:01.593Z,100095.03
2022-12-23T16:05:29.602Z,100090.16
2022-12-23T16:07:55.999Z,100103.19
2022-12-23T16:10:22.403Z,100092.28
2022-12-23T16:12:48.819Z,100100.44
2022-12-23T16:15:15.262Z,100102.88
2022-12-23T16:17:41.654Z,100105.25
2022-12-23T16:20:08.039Z,100113.13
2022-12-23T16:22:34.459Z,100116.63
2022-12-23T16:25:00.830Z,100118.75
2022-12-23T16:27:27.290Z,100116.00
2022-12-23T16:29:53.691Z,100119.03
2022-12-23T16:32:20.222Z,100123.25
2022-12-23T16:34:46.694Z,100110.25
2022-12-23T16:37:14.249Z,100121.47
2022-12-23T16:39:40.790Z,100110.66
2022-12-23T16:42:08.138Z,100117.81
2022-12-23T16:44:34.589Z,100120.53
2022-12-23T16:47:00.962Z,100118.75
2022-12-23T16:49:33.150Z,100116.19
2022-12-23T16:52:00.268Z,100121.16
2022-12-23T16:54:26.683Z,100132.81
2022-12-23T16:56:54.614Z,100142.38
2022-12-23T16:59:21.065Z,100145.72
2022-12-23T17:01:47.559Z,100151.47
2022-12-23T17:04:14.131Z,100149.03
2022-12-23T17:06:40.582Z,100149.03
2022-12-23T17:09:06.979Z,100150.72
2022-12-23T17:11:33.384Z,100148.97
2022-12-23T17:14:04.150Z,100160.19
2022-12-23T17:16:33.251Z,100172.16
2022-12-23T17:18:59.710Z,100176.75
2022-12-23T17:21:26.088Z,100168.56
2022-12-23T17:23:52.452Z,100187.59
2022-12-23T17:26:19.232Z,100190.91
2022-12-23T17:28:45.622Z,100188.69
2022-12-23T17:31:14.865Z,100203.81
2022-12-23T17:33:43.478Z,100185.53
2022-12-23T17:36:09.925Z,100186.13
2022-12-23T17:38:36.344Z,100198.25
2022-12-23T17:41:03.427Z,100199.34
2022-12-23T17:43:29.835Z,100207.97
2022-12-23T17:45:56.261Z,100215.13
2022-12-23T17:48:27.975Z,100220.41
2022-12-23T17:50:57.783Z,100210.69
2022-12-23T17:53:24.129Z,100204.78
2022-12-23T17:55:50.496Z,100211.75
2022-12-23T17:58:16.903Z,100205.38
2022-12-23T18:00:43.389Z,100197.81
2022-12-23T18:03:09.861Z,100202.50
2022-12-23T18:05:36.375Z,100218.44
2022-12-23T18:08:02.760Z,100232.41
2022-12-23T18:10:29.150Z,100246.19
2022-12-23T18:12:55.513Z,100249.88
2022-12-23T18:15:21.897Z,100249.72
2022-12-23T18:17:48.310Z,100251.22
2022-12-23T18:20:14.680Z,100245.91
2022-12-23T18:22:41.141Z,100272.88
2022-12-23T18:25:07.608Z,100289.06
2022-12-23T18:27:33.965Z,100297.91
2022-12-23T18:30:00.333Z,100296.81
2022-12-23T18:32:26.740Z,100300.75
2022-12-23T18:34:53.113Z,100299.41
2022-12-23T18:37:19.494Z,100300.47
2022-12-23T18:39:45.907Z,100286.34
2022-12-23T18:42:12.277Z,100279.78
2022-12-23T18:44:38.649Z,100281.00
2022-12-23T18:47:05.009Z,100288.78
2022-12-23T18:49:31.373Z,100295.94
2022-12-23T18:51:57.751Z,100289.69
2022-12-23T18:54:24.142Z,100284.25
2022-12-23T18:56:50.640Z,100292.44
2022-12-23T18:59:17.012Z,100302.69
2022-12-23T19:01:43.419Z,100300.31
2022-12-23T19:04:09.812Z,100296.66
2022-12-23T19:06:36.176Z,100302.16
2022-12-23T19:09:02.571Z,100319.22
2022-12-23T19:11:28.945Z,100308.34
2022-12-23T19:13:55.316Z,100313.47
2022-12-23T19:16:21.777Z,100313.06
2022-12-23T19:18:48.193Z,100322.31
2022-12-23T19:21:14.601Z,100326.97
2022-12-23T19:23:40.974Z,100322.44
2022-12-23T19:26:07.364Z,100329.41
2022-12-23T19:28:33.735Z,100330.91
2022-12-23T19:31:00.212Z,100340.31
2022-12-23T19:33:26.723Z,100340.50
2022-12-23T19:35:53.089Z,100342.16
2022-12-23T19:38:19.497Z,100345.97
2022-12-23T19:40:45.901Z,100342.47
2022-12-23T19:43:12.299Z,100339.44
2022-12-23T19:45:38.649Z,100346.38
2022-12-23T19:48:05.004Z,100350.31
2022-12-23T19:50:31.368Z,100349.72
2022-12-23T19:52:57.772Z,100354.72
2022-12-23T19:55:24.249Z,100353.22
2022-12-23T19:57:50.643Z,100357.47
2022-12-23T20:00:17.013Z,100355.47
2022-12-23T20:02:43.485Z,100348.97
2022-12-23T20:05:09.918Z,100357.31
2022-12-23T20:07:36.294Z,100354.25
2022-12-23T20:10:02.676Z,100356.84
2022-12-23T20:12:29.121Z,100366.09
2022-12-23T20:14:55.565Z,100365.50
2022-12-23T20:17:21.924Z,100370.94
2022-12-23T20:19:48.302Z,100373.69
2022-12-23T20:22:14.683Z,100378.09
2022-12-23T20:24:41.142Z,100379.91
2022-12-23T20:27:11.369Z,100383.53
2022-12-23T20:29:38.395Z,100387.16
2022-12-23T20:32:04.766Z,100390.50
2022-12-23T20:34:38.396Z,100391.13
2022-12-23T20:37:05.790Z,100389.47
2022-12-23T20:39:32.192Z,100400.19
2022-12-23T20:41:58.604Z,100401.72
2022-12-23T20:44:34.416Z,100402.50
2022-12-23T20:47:01.913Z,100400.97
2022-12-23T20:49:28.402Z,100410.06
2022-12-23T20:51:54.886Z,100410.38
2022-12-23T20:54:24.916Z,100398.84
2022-12-23T20:56:54.473Z,100418.13
2022-12-23T20:59:20.830Z,100406.88
2022-12-23T21:01:47.273Z,100408.13
2022-12-23T21:04:13.628Z,100426.28
2022-12-23T21:06:40.011Z,100427.81
2022-12-23T21:09:06.397Z,100424.59
2022-12-23T21:11:32.769Z,100435.34
2022-12-23T21:14:05.643Z,100436.75
2022-12-23T21:16:32.985Z,100434.94
2022-12-23T21:18:59.692Z,100443.69
2022-12-23T21:21:26.089Z,100431.28
2022-12-23T21:23:52.445Z,100438.38
2022-12-23T21:26:18.844Z,100445.22
2022-12-23T21:28:45.213Z,100441.72
2022-12-23T21:31:11.604Z,100443.38
2022-12-23T21:33:38.031Z,100452.91
2022-12-23T21:36:04.515Z,100445.50
2022-12-23T21:38:30.945Z,100442.31
2022-12-23T21:40:57.372Z,100453.22
2022-12-23T21:43:23.726Z,100454.28
2022-12-23T21:45:50.130Z,100455.03
2022-12-23T21:48:16.498Z,100451.69
2022-12-23T21:50:42.873Z,100438.97
2022-12-23T21:53:09.242Z,100446.09
2022-12-23T21:55:35.592Z,100460.34
2022-12-23T21:58:01.952Z,100463.22
2022-12-23T22:00:28.360Z,100466.56
2022-12-23T22:02:54.735Z,100474.72
2022-12-23T22:05:21.124Z,100470.06
2022-12-23T22:07:47.525Z,100465.19
2022-12-23T22:10:13.871Z,100475.78
2022-12-23T22:12:40.256Z,100467.59
2022-12-23T22:15:11.545Z,100469.88
2022-12-23T22:17:38.316Z,100481.53
2022-12-23T22:20:04.691Z,100483.34
2022-12-23T22:22:31.160Z,100486.69
2022-12-23T22:24:57.539Z,100487.56
2022-12-23T22:27:23.915Z,100493.00
2022-12-23T22:29:50.416Z,100487.88
2022-12-23T22:32:16.785Z,100492.09
2022-12-23T22:34:43.186Z,100486.66
2022-12-23T22:37:09.672Z,100483.44
2022-12-23T22:39:36.028Z,100478.94
2022-12-23T22:42:02.400Z,100471.81
2022-12-23T22:44:28.882Z,100483.31
2022-12-23T22:46:55.284Z,100484.69
2022-12-23T22:49:21.732Z,100500.41
2022-12-23T22:51:48.127Z,100508.59
2022-12-23T22:54:14.496Z,100510.25
2022-12-23T22:56:40.883Z,100517.06
2022-12-23T22:59:07.287Z,100505.41
2022-12-23T23:01:33.702Z,100517.53
2022-12-23T23:04:00.096Z,100511.75
2022-12-23T23:06:26.564Z,100509.50
2022-12-23T23:08:52.930Z,100506.63
2022-12-23T23:11:19.354Z,100509.22
2022-12-23T23:13:45.834Z,100508.13
2022-12-23T23:16:12.234Z,100507.84
2022-12-23T23:18:38.622Z,100500.63
2022-12-23T23:21:04.994Z,100515.00
2022-12-23T23:23:31.370Z,100520.59
2022-12-23T23:25:57.738Z,100510.56
2022-12-23T23:28:24.088Z,100517.25
2022-12-23T23:31:03.590Z,100530.88
2022-12-23T23:33:36.812Z,100522.44
2022-12-23T23:36:03.220Z,100531.94
2022-12-23T23:38:29.619Z,100530.69
2022-12-23T23:40:55.988Z,100533.28
2022-12-23T23:43:22.361Z,100541.16
2022-12-23T23:45:48.730Z,100540.41
2022-12-23T23:48:15.175Z,100544.94
2022-12-23T23:50:41.525Z,100552.00
2022-12-23T23:53:07.913Z,100566.88
2022-12-23T23:55:34.398Z,100559.47
2022-12-23T23:58:00.763Z,100544.09
